Time;durP1;ratioP1;P1;durP2;ratioP2;P2;SDS_P1;SDS_P2;PMS_P1;PMS_P2;Temp;Humidity;BMP_temperature;BMP_pressure;BME280_temperature;BME280_humidity;BME280_pressure;Samples;Min_cycle;Max_cycle;Signal;HPM_P1;HPM_P2
2022/08/10 00:00:55;;;;;;;3.60;3.30;;;18.80;99.90;;;;;;5097162;28;20503;-53
2022/08/10 00:03:25;;;;;;;3.10;2.80;;;18.80;99.90;;;;;;5096834;28;20517;-55
2022/08/10 00:05:55;;;;;;;4.53;3.73;;;18.80;99.90;;;;;;5096743;28;20555;-53
2022/08/10 00:08:28;;;;;;;6.00;3.30;;;18.70;99.90;;;;;;5096742;28;20464;-54
2022/08/10 00:10:58;;;;;;;3.83;3.40;;;18.70;99.90;;;;;;5097211;28;20464;-55
2022/08/10 00:13:26;;;;;;;3.57;3.23;;;18.70;99.90;;;;;;5096588;28;20511;-54
2022/08/10 00:15:56;;;;;;;3.50;3.20;;;18.70;99.90;;;;;;5096706;28;20472;-55
2022/08/10 00:18:28;;;;;;;3.60;3.30;;;18.70;99.90;;;;;;5097171;28;20456;-55
2022/08/10 00:20:56;;;;;;;3.80;3.50;;;18.60;99.90;;;;;;5097311;28;20543;-51
2022/08/10 00:23:23;;;;;;;3.30;3.00;;;18.60;99.90;;;;;;5097024;28;20517;-55
2022/08/10 00:25:53;;;;;;;4.20;3.20;;;18.50;99.90;;;;;;5096594;28;20555;-50
2022/08/10 00:28:21;;;;;;;4.63;3.23;;;18.40;99.90;;;;;;5096858;28;20464;-53
2022/08/10 00:30:49;;;;;;;4.23;3.60;;;18.30;99.90;;;;;;5096753;28;20767;-56
2022/08/10 00:33:16;;;;;;;3.70;3.40;;;18.30;99.90;;;;;;5095665;28;20781;-55
2022/08/10 00:35:43;;;;;;;3.60;3.10;;;18.30;99.90;;;;;;5096387;28;20471;-54
2022/08/10 00:38:13;;;;;;;3.40;3.10;;;18.30;99.90;;;;;;5096902;28;20456;-52
2022/08/10 00:40:40;;;;;;;5.10;4.10;;;18.30;99.90;;;;;;5097112;28;20463;-51
2022/08/10 00:43:08;;;;;;;6.13;4.00;;;18.30;99.90;;;;;;5096660;28;20471;-54
2022/08/10 00:45:38;;;;;;;4.13;3.70;;;18.20;99.90;;;;;;5096647;28;20460;-55
2022/08/10 00:48:05;;;;;;;3.30;3.07;;;18.20;99.90;;;;;;5096280;28;20555;-57
2022/08/10 00:50:33;;;;;;;3.30;3.00;;;18.10;99.90;;;;;;5097171;28;20460;-57
2022/08/10 00:53:01;;;;;;;3.30;3.00;;;18.20;99.90;;;;;;5100245;28;20578;-57
2022/08/10 00:55:28;;;;;;;4.43;3.40;;;18.10;99.90;;;;;;5100270;28;20460;-56
2022/08/10 00:57:56;;;;;;;5.20;3.60;;;18.20;99.90;;;;;;5100212;28;20752;-49
2022/08/10 01:00:24;;;;;;;7.90;3.40;;;18.10;99.90;;;;;;5099844;28;20470;-50
2022/08/10 01:02:55;;;;;;;3.97;3.67;;;18.10;99.90;;;;;;5100105;28;20493;-53
2022/08/10 01:05:26;;;;;;;3.73;3.43;;;18.10;99.90;;;;;;5099875;28;20550;-53
2022/08/10 01:08:20;;;;;;;4.23;3.90;;;18.00;99.90;;;;;;5099778;28;20486;-52
2022/08/10 01:11:01;;;;;;;4.10;3.27;;;17.90;99.90;;;;;;5100086;28;20457;-51
2022/08/10 01:13:38;;;;;;;3.50;3.17;;;17.90;99.90;;;;;;5100062;28;20495;-50
2022/08/10 01:16:15;;;;;;;3.50;3.20;;;17.80;99.90;;;;;;5099548;28;20558;-54
2022/08/10 01:18:54;;;;;;;5.67;3.73;;;17.80;99.90;;;;;;5099511;28;20567;-50
2022/08/10 01:21:40;;;;;;;3.20;2.90;;;17.70;99.90;;;;;;5100072;28;20467;-57
2022/08/10 01:24:50;;;;;;;3.57;3.27;;;17.60;99.90;;;;;;5099270;28;20457;-56
2022/08/10 01:27:26;;;;;;;3.90;3.60;;;17.60;99.90;;;;;;5099212;28;20766;-53
2022/08/10 01:30:07;;;;;;;3.67;3.30;;;17.50;99.90;;;;;;5099572;28;20456;-55
2022/08/10 01:32:51;;;;;;;4.53;3.27;;;17.40;99.90;;;;;;5099728;28;20944;-54
2022/08/10 01:35:31;;;;;;;3.80;3.40;;;17.40;99.90;;;;;;5099560;28;20507;-51
2022/08/10 01:38:06;;;;;;;3.83;3.43;;;17.40;99.90;;;;;;5099171;28;20435;-52
2022/08/10 01:40:39;;;;;;;4.60;4.20;;;17.40;99.90;;;;;;5099835;28;20435;-55
2022/08/10 01:43:11;;;;;;;4.40;4.00;;;17.40;99.90;;;;;;5099432;28;20461;-56
2022/08/10 01:45:43;;;;;;;4.20;3.40;;;17.40;99.90;;;;;;5099008;28;20460;-56
2022/08/10 01:48:27;;;;;;;4.10;3.67;;;17.40;99.90;;;;;;5099316;28;20466;-50
2022/08/10 01:51:03;;;;;;;4.60;3.47;;;17.30;99.90;;;;;;5099846;28;20454;-55
2022/08/10 01:53:36;;;;;;;3.90;3.57;;;17.20;99.90;;;;;;5099642;28;20511;-52
2022/08/10 01:56:04;;;;;;;4.40;3.70;;;17.20;99.90;;;;;;5098823;28;20430;-54
2022/08/10 01:58:33;;;;;;;4.07;3.50;;;17.20;99.90;;;;;;5098983;28;20439;-53
2022/08/10 02:01:04;;;;;;;4.27;3.70;;;17.20;99.90;;;;;;5098939;28;20461;-56
2022/08/10 02:03:33;;;;;;;5.33;4.07;;;17.20;99.90;;;;;;5098929;28;20498;-52
2022/08/10 02:06:02;;;;;;;4.87;4.43;;;17.10;99.90;;;;;;5098523;28;20460;-56
2022/08/10 02:08:33;;;;;;;4.20;3.80;;;17.10;99.90;;;;;;5098857;28;20537;-54
2022/08/10 02:11:04;;;;;;;4.03;3.73;;;17.20;99.90;;;;;;5098757;28;20464;-56
2022/08/10 02:13:35;;;;;;;4.30;3.40;;;17.20;99.90;;;;;;5098630;28;20507;-56
2022/08/10 02:16:06;;;;;;;4.00;3.50;;;17.10;99.90;;;;;;5098416;28;20465;-54
2022/08/10 02:18:39;;;;;;;5.80;3.60;;;17.10;99.90;;;;;;5098595;28;20460;-54
2022/08/10 02:21:08;;;;;;;4.73;4.07;;;17.10;99.90;;;;;;5098583;28;20955;-52
2022/08/10 02:23:39;;;;;;;6.83;3.40;;;17.00;99.90;;;;;;5098522;28;20431;-55
2022/08/10 02:26:09;;;;;;;4.10;3.80;;;16.90;99.90;;;;;;5098530;28;20430;-53
2022/08/10 02:28:38;;;;;;;3.70;3.40;;;16.90;99.90;;;;;;5098721;28;20518;-54
2022/08/10 02:31:10;;;;;;;5.03;4.10;;;16.80;99.90;;;;;;5098106;28;20470;-53
2022/08/10 02:33:41;;;;;;;4.37;3.87;;;16.80;99.90;;;;;;5096726;28;20459;-51
2022/08/10 02:36:11;;;;;;;4.20;3.80;;;16.80;99.90;;;;;;5097611;28;20467;-53
2022/08/10 02:38:46;;;;;;;4.60;3.77;;;16.80;99.90;;;;;;5097839;28;20468;-55
2022/08/10 02:41:30;;;;;;;5.53;4.90;;;16.90;99.90;;;;;;5098529;28;20457;-55
2022/08/10 02:44:04;;;;;;;5.27;4.50;;;16.90;99.90;;;;;;5098085;28;20542;-50
2022/08/10 02:46:39;;;;;;;3.90;3.33;;;16.80;99.90;;;;;;5097915;28;20471;-54
2022/08/10 02:49:09;;;;;;;5.03;4.37;;;16.70;99.90;;;;;;5097994;28;20914;-56
2022/08/10 02:51:44;;;;;;;5.50;3.67;;;16.70;99.90;;;;;;5097879;28;20760;-56
2022/08/10 02:54:22;;;;;;;4.40;4.00;;;16.60;99.90;;;;;;5097825;28;20469;-53
2022/08/10 02:56:56;;;;;;;5.00;4.50;;;16.60;99.90;;;;;;5096535;28;20464;-55
2022/08/10 02:59:28;;;;;;;4.33;3.93;;;16.50;99.90;;;;;;5097655;28;20736;-51
2022/08/10 03:02:02;;;;;;;4.37;3.97;;;16.50;99.90;;;;;;5097735;28;20442;-53
2022/08/10 03:04:40;;;;;;;5.57;4.40;;;16.40;99.90;;;;;;5097809;28;20430;-53
2022/08/10 03:07:11;;;;;;;5.17;4.07;;;16.30;99.90;;;;;;5097436;28;20460;-55
2022/08/10 03:09:40;;;;;;;5.37;4.23;;;16.30;99.90;;;;;;5097869;28;20927;-51
2022/08/10 03:12:13;;;;;;;5.43;3.93;;;16.30;99.90;;;;;;5097595;28;20467;-53
2022/08/10 03:14:44;;;;;;;5.03;4.53;;;16.20;99.90;;;;;;5096643;28;20566;-53
2022/08/10 03:17:15;;;;;;;6.87;3.97;;;16.10;99.90;;;;;;5097322;28;20458;-50
2022/08/10 03:19:43;;;;;;;4.30;3.90;;;16.10;99.90;;;;;;5097326;28;20435;-54
2022/08/10 03:22:13;;;;;;;4.53;4.10;;;16.10;99.90;;;;;;5097314;28;20893;-54
2022/08/10 03:24:43;;;;;;;5.97;4.83;;;16.10;99.90;;;;;;5097511;28;20463;-53
2022/08/10 03:27:14;;;;;;;5.90;4.80;;;16.00;99.90;;;;;;5097847;28;20465;-54
2022/08/10 03:29:42;;;;;;;6.10;4.90;;;15.90;99.90;;;;;;5097313;28;20514;-56
2022/08/10 03:32:13;;;;;;;6.10;5.53;;;15.80;99.90;;;;;;5096261;28;20550;-53
2022/08/10 03:34:44;;;;;;;6.03;5.37;;;15.90;99.90;;;;;;5097772;28;20755;-56
2022/08/10 03:37:11;;;;;;;5.23;4.73;;;15.80;99.90;;;;;;5097023;28;20435;-53
2022/08/10 03:39:38;;;;;;;4.97;4.57;;;15.80;99.90;;;;;;5096806;28;20488;-50
2022/08/10 03:42:11;;;;;;;5.80;5.00;;;15.70;99.90;;;;;;5096909;28;20467;-55
2022/08/10 03:44:42;;;;;;;6.80;5.00;;;15.60;99.90;;;;;;5097377;28;20456;-50
2022/08/10 03:47:13;;;;;;;4.83;4.43;;;15.60;99.90;;;;;;5097583;28;20460;-47
2022/08/10 03:49:45;;;;;;;5.33;4.80;;;15.60;99.90;;;;;;5096817;28;20456;-51
2022/08/10 03:52:13;;;;;;;5.13;4.63;;;15.60;99.90;;;;;;5096890;28;20513;-50
2022/08/10 03:54:44;;;;;;;7.93;5.00;;;15.50;99.90;;;;;;5097536;28;20488;-53
2022/08/10 03:57:12;;;;;;;5.20;4.60;;;15.50;99.90;;;;;;5097855;28;20862;-54
2022/08/10 03:59:44;;;;;;;6.13;4.80;;;15.50;99.90;;;;;;5096874;28;20499;-52
2022/08/10 04:02:14;;;;;;;7.77;4.73;;;15.40;99.90;;;;;;5092275;28;20447;-56
2022/08/10 04:04:42;;;;;;;6.70;6.00;;;15.40;99.90;;;;;;5086258;28;20499;-53
2022/08/10 04:07:10;;;;;;;5.40;4.90;;;15.30;99.90;;;;;;5097355;28;20472;-49
2022/08/10 04:09:38;;;;;;;7.90;5.63;;;15.30;99.90;;;;;;5097090;28;20465;-55
2022/08/10 04:12:06;;;;;;;6.07;5.57;;;15.30;99.90;;;;;;5097480;28;20460;-51
2022/08/10 04:14:33;;;;;;;4.83;4.43;;;15.30;99.90;;;;;;5096524;28;20503;-53
2022/08/10 04:17:01;;;;;;;5.60;4.67;;;15.30;99.90;;;;;;5094894;28;20791;-51
2022/08/10 04:19:37;;;;;;;7.50;4.93;;;15.30;99.90;;;;;;5092837;28;20502;-51
2022/08/10 04:22:10;;;;;;;5.40;4.90;;;15.20;99.90;;;;;;5094639;28;20438;-56
2022/08/10 04:24:39;;;;;;;6.37;5.07;;;15.20;99.90;;;;;;5095717;28;20427;-54
2022/08/10 04:27:07;;;;;;;5.77;5.17;;;15.20;99.90;;;;;;5096632;28;20452;-51
2022/08/10 04:29:34;;;;;;;6.13;5.43;;;15.20;99.90;;;;;;5098896;28;20496;-55
2022/08/10 04:32:03;;;;;;;6.00;5.40;;;15.20;1.00;;;;;;5096720;28;20468;-51
2022/08/10 04:34:33;;;;;;;5.63;4.77;;;15.30;1.00;;;;;;5094472;28;20511;-51
2022/08/10 04:37:03;;;;;;;9.80;6.30;;;15.20;1.00;;;;;;5098480;28;20768;-56
2022/08/10 04:39:31;;;;;;;6.13;5.53;;;15.30;1.00;;;;;;5090566;28;20504;-54
2022/08/10 04:42:02;;;;;;;6.77;6.07;;;15.30;1.00;;;;;;5098164;28;20768;-54
2022/08/10 04:44:30;;;;;;;6.87;5.90;;;15.30;1.00;;;;;;5095761;28;20426;-56
2022/08/10 04:46:57;;;;;;;5.80;4.50;;;15.30;1.00;;;;;;5098392;28;20543;-52
2022/08/10 04:49:24;;;;;;;6.07;4.90;;;15.30;1.00;;;;;;5089532;28;20489;-52
2022/08/10 04:51:53;;;;;;;7.03;6.03;;;15.40;1.00;;;;;;5079548;28;20515;-52
2022/08/10 04:54:24;;;;;;;6.03;5.50;;;15.40;1.00;;;;;;5078434;28;20468;-50
2022/08/10 04:56:51;;;;;;;5.60;4.97;;;15.40;1.00;;;;;;5078465;28;20468;-52
2022/08/10 04:59:18;;;;;;;7.90;6.10;;;15.50;1.00;;;;;;5081523;28;20499;-49
2022/08/10 05:01:46;;;;;;;5.60;5.10;;;15.50;1.00;;;;;;5089943;28;20882;-53
2022/08/10 05:04:15;;;;;;;6.87;5.00;;;15.50;1.00;;;;;;5100120;28;20468;-52
2022/08/10 05:06:46;;;;;;;8.30;6.60;;;15.60;1.00;;;;;;5079820;28;20564;-54
2022/08/10 05:11:56;;;;;;;5.60;5.00;;;15.70;1.00;;;;;;5096088;28;20456;-53
2022/08/10 05:14:29;;;;;;;8.23;6.37;;;15.70;1.00;;;;;;5098023;28;20970;-54
2022/08/10 05:16:59;;;;;;;8.90;6.80;;;15.70;99.90;;;;;;5098297;28;20456;-55
2022/08/10 05:19:27;;;;;;;8.40;5.37;;;15.80;1.00;;;;;;5095899;28;20525;-52
2022/08/10 05:21:56;;;;;;;6.93;5.83;;;15.90;99.90;;;;;;5097934;28;20460;-57
2022/08/10 05:24:27;;;;;;;9.47;6.17;;;15.90;99.90;;;;;;5095304;28;20445;-55
2022/08/10 05:26:54;;;;;;;7.70;6.43;;;16.10;99.90;;;;;;5098005;28;20453;-55
2022/08/10 05:29:22;;;;;;;7.17;6.47;;;16.20;99.90;;;;;;5098430;28;20453;-55
2022/08/10 05:31:52;;;;;;;7.63;6.10;;;16.30;99.90;;;;;;5097153;28;20452;-56
2022/08/10 05:34:25;;;;;;;7.83;5.90;;;16.40;99.90;;;;;;5097319;28;20779;-56
2022/08/10 05:36:54;;;;;;;7.10;6.10;;;16.40;99.90;;;;;;5097458;28;20905;-55
2022/08/10 05:39:22;;;;;;;11.03;6.50;;;16.50;99.90;;;;;;5097519;28;20464;-56
2022/08/10 05:41:53;;;;;;;12.70;7.40;;;16.60;99.90;;;;;;5098799;28;20514;-56
2022/08/10 05:44:22;;;;;;;12.60;5.50;;;16.70;99.90;;;;;;5099060;28;20558;-56
2022/08/10 05:46:53;;;;;;;10.23;6.67;;;16.80;99.90;;;;;;5097894;28;20439;-54
2022/08/10 05:49:21;;;;;;;10.23;5.80;;;16.90;99.90;;;;;;5099832;28;20463;-52
2022/08/10 05:51:51;;;;;;;9.33;5.70;;;17.10;99.90;;;;;;5099047;28;20462;-56
2022/08/10 05:54:18;;;;;;;8.17;6.60;;;17.30;99.90;;;;;;5098715;28;20483;-57
2022/08/10 05:56:49;;;;;;;13.00;6.77;;;17.40;99.90;;;;;;5098664;28;20498;-56
2022/08/10 05:59:22;;;;;;;13.17;7.40;;;17.60;99.90;;;;;;5098873;28;20452;-51
2022/08/10 06:01:51;;;;;;;17.43;6.70;;;17.70;99.90;;;;;;5098123;28;20434;-57
2022/08/10 06:04:29;;;;;;;11.40;6.60;;;17.90;99.90;;;;;;5099055;28;20460;-52
2022/08/10 06:06:59;;;;;;;12.87;6.50;;;18.10;99.90;;;;;;5098778;28;20460;-58
2022/08/10 06:09:28;;;;;;;9.47;5.53;;;18.30;99.90;;;;;;5097442;28;20431;-57
2022/08/10 06:12:03;;;;;;;17.40;7.17;;;18.60;99.90;;;;;;5097314;28;20456;-55
2022/08/10 06:17:19;;;;;;;9.67;5.70;;;19.10;99.90;;;;;;5098221;28;20920;-57
2022/08/10 06:19:48;;;;;;;6.57;4.80;;;19.50;99.90;;;;;;5098145;28;20534;-58
2022/08/10 06:22:16;;;;;;;5.63;4.63;;;19.80;99.90;;;;;;5097278;28;20464;-57
2022/08/10 06:24:49;;;;;;;8.13;4.50;;;20.10;99.90;;;;;;5098045;28;20467;-58
2022/08/10 06:27:25;;;;;;;7.40;4.67;;;20.50;99.90;;;;;;5097874;28;20778;-58
2022/08/10 06:29:55;;;;;;;6.83;5.27;;;20.80;99.90;;;;;;5097941;28;20526;-55
2022/08/10 06:32:27;;;;;;;7.67;4.37;;;21.10;99.90;;;;;;5095835;28;20463;-58
2022/08/10 06:34:58;;;;;;;6.53;4.87;;;21.30;99.90;;;;;;5098036;28;20488;-58
2022/08/10 06:37:28;;;;;;;5.20;4.63;;;21.60;99.90;;;;;;5094343;28;20447;-57
2022/08/10 06:39:55;;;;;;;5.27;4.20;;;21.90;99.90;;;;;;5097087;28;20484;-57
2022/08/10 06:42:29;;;;;;;4.20;3.83;;;22.10;99.90;;;;;;5097733;28;20438;-56
2022/08/10 06:45:01;;;;;;;5.60;4.50;;;22.40;99.90;;;;;;5097129;28;20456;-56
2022/08/10 06:47:39;;;;;;;5.83;4.30;;;22.60;99.90;;;;;;5109561;28;20540;-55
2022/08/10 06:50:14;;;;;;;4.77;4.30;;;22.90;99.90;;;;;;5118001;28;20470;-57
2022/08/10 06:52:52;;;;;;;5.70;4.30;;;23.10;99.90;;;;;;5118341;28;20451;-58
2022/08/10 06:55:23;;;;;;;4.80;4.13;;;23.20;99.90;;;;;;5118560;28;20461;-57
2022/08/10 06:57:53;;;;;;;4.97;4.50;;;23.40;99.90;;;;;;5116918;28;20766;-58
2022/08/10 07:00:22;;;;;;;6.03;3.93;;;23.60;99.90;;;;;;5105938;28;20468;-57
2022/08/10 07:03:03;;;;;;;4.60;4.20;;;23.80;99.90;;;;;;5097675;28;20463;-58
2022/08/10 07:05:38;;;;;;;4.43;3.50;;;24.00;99.90;;;;;;5097774;28;20550;-57
2022/08/10 07:08:07;;;;;;;9.80;4.43;;;24.10;99.90;;;;;;5097406;28;20499;-58
2022/08/10 07:10:38;;;;;;;4.77;4.03;;;24.40;99.90;;;;;;5097730;28;20554;-58
2022/08/10 07:13:06;;;;;;;10.00;3.87;;;24.60;99.90;;;;;;5097995;28;20460;-59
2022/08/10 07:15:37;;;;;;;3.80;3.50;;;24.90;99.90;;;;;;5097359;28;20503;-58
2022/08/10 07:18:11;;;;;;;5.00;4.60;;;25.10;99.90;;;;;;5091456;28;20964;-52
2022/08/10 07:20:47;;;;;;;4.47;4.07;;;25.10;99.90;;;;;;5095213;28;20476;-59
2022/08/10 07:23:19;;;;;;;5.03;4.03;;;25.10;99.90;;;;;;5096334;28;20469;-58
2022/08/10 07:25:48;;;;;;;3.83;3.53;;;25.30;99.90;;;;;;5095803;28;20457;-59
2022/08/10 07:28:26;;;;;;;6.07;3.83;;;25.40;99.90;;;;;;5095816;28;20460;-59
2022/08/10 07:30:56;;;;;;;4.30;4.00;;;25.70;99.90;;;;;;5096521;28;20459;-57
2022/08/10 07:33:26;;;;;;;4.53;4.03;;;25.90;99.90;;;;;;5096798;28;20460;-59
2022/08/10 07:35:55;;;;;;;4.60;3.90;;;26.10;99.90;;;;;;5096721;28;20499;-57
2022/08/10 07:38:26;;;;;;;5.27;4.37;;;26.30;99.90;;;;;;5097529;28;20718;-58
2022/08/10 07:40:59;;;;;;;5.37;4.63;;;26.10;99.90;;;;;;5097110;28;20456;-59
2022/08/10 07:43:40;;;;;;;3.70;3.40;;;25.90;99.90;;;;;;5097708;28;20874;-59
2022/08/10 07:46:14;;;;;;;5.43;4.13;;;26.20;99.90;;;;;;5097190;28;20435;-58
2022/08/10 07:48:48;;;;;;;4.67;4.20;;;26.80;99.90;;;;;;5097097;28;20908;-59
2022/08/10 07:51:18;;;;;;;5.77;3.50;;;27.20;99.90;;;;;;5090663;28;20879;-55
2022/08/10 07:53:50;;;;;;;4.50;4.00;;;27.60;99.90;;;;;;5081391;28;20526;-58
2022/08/10 07:56:21;;;;;;;3.80;3.50;;;27.30;99.90;;;;;;5076927;28;21033;-59
2022/08/10 07:58:57;;;;;;;5.80;4.30;;;27.10;99.90;;;;;;5077372;28;20461;-59
2022/08/10 08:01:31;;;;;;;4.87;4.37;;;27.40;99.90;;;;;;5080056;28;20519;-58
2022/08/10 08:04:01;;;;;;;6.53;4.07;;;27.60;99.90;;;;;;5084371;28;20470;-57
2022/08/10 08:06:31;;;;;;;4.77;4.33;;;27.90;99.90;;;;;;5088799;28;20780;-58
2022/08/10 08:09:03;;;;;;;5.00;4.50;;;27.50;99.90;;;;;;5100098;28;20563;-59
2022/08/10 08:11:35;;;;;;;6.83;4.77;;;27.60;99.90;;;;;;5098063;28;20468;-59
2022/08/10 08:14:04;;;;;;;4.60;4.20;;;28.00;99.90;;;;;;5095495;28;20465;-56
2022/08/10 08:16:38;;;;;;;7.33;3.57;;;27.90;99.90;;;;;;5098897;28;20760;-58
2022/08/10 08:19:10;;;;;;;4.53;4.20;;;28.30;99.90;;;;;;5097984;28;20556;-58
2022/08/10 08:21:40;;;;;;;3.93;3.50;;;28.60;99.90;;;;;;5098890;28;20479;-59
2022/08/10 08:24:08;;;;;;;5.43;4.03;;;28.80;99.90;;;;;;5100623;28;20464;-57
2022/08/10 08:26:40;;;;;;;4.30;3.90;;;29.00;99.90;;;;;;5100771;28;20460;-55
2022/08/10 08:29:12;;;;;;;5.80;4.37;;;29.40;99.90;;;;;;5096964;28;20470;-59
2022/08/10 08:31:43;;;;;;;4.40;4.10;;;29.50;99.90;;;;;;5099272;28;20884;-58
2022/08/10 08:34:15;;;;;;;4.80;4.40;;;29.60;99.90;;;;;;5085744;28;20563;-59
2022/08/10 08:36:43;;;;;;;5.30;4.70;;;29.90;99.90;;;;;;5100717;28;20499;-55
2022/08/10 08:39:13;;;;;;;4.87;4.40;;;30.00;99.90;;;;;;5099882;28;20471;-58
2022/08/10 08:42:00;;;;;;;4.27;3.87;;;30.10;99.90;;;;;;5100299;28;20553;-59
2022/08/10 08:44:42;;;;;;;9.37;4.50;;;30.10;99.90;;;;;;5098378;28;20563;-58
2022/08/10 08:47:31;;;;;;;4.93;4.23;;;30.20;99.90;;;;;;5099635;28;20461;-59
2022/08/10 08:50:13;;;;;;;4.93;3.80;;;30.60;99.90;;;;;;5096278;28;20465;-59
2022/08/10 08:52:59;;;;;;;4.60;4.10;;;30.60;99.90;;;;;;5099904;28;20547;-56
2022/08/10 08:55:42;;;;;;;3.50;3.20;;;30.40;99.90;;;;;;5096767;28;20445;-57
2022/08/10 08:58:27;;;;;;;5.10;4.60;;;30.20;99.90;;;;;;5097689;28;20838;-60
2022/08/10 09:01:05;;;;;;;4.17;3.80;;;30.20;99.90;;;;;;5098803;28;20900;-59
2022/08/10 09:04:10;;;;;;;4.47;4.07;;;30.90;99.90;;;;;;5099155;28;20578;-59
2022/08/10 09:07:08;;;;;;;4.23;3.87;;;31.00;99.90;;;;;;5098987;28;20460;-59
2022/08/10 09:09:56;;;;;;;3.73;3.43;;;31.40;99.90;;;;;;5099103;28;20500;-59
2022/08/10 09:12:38;;;;;;;6.23;3.60;;;31.30;99.90;;;;;;5097395;28;20435;-59
2022/08/10 09:15:12;;;;;;;4.73;4.20;;;31.20;99.90;;;;;;5098817;28;20586;-54
2022/08/10 09:17:50;;;;;;;5.07;4.50;;;30.90;99.90;;;;;;5099393;28;20456;-59
2022/08/10 09:20:31;;;;;;;4.50;4.20;;;30.70;99.90;;;;;;5098470;28;20551;-59
2022/08/10 09:23:14;;;;;;;4.90;4.50;;;30.90;99.90;;;;;;5099397;28;20788;-60
2022/08/10 09:25:48;;;;;;;4.20;3.87;;;31.60;99.90;;;;;;5098612;28;20456;-59
2022/08/10 09:28:23;;;;;;;4.17;3.77;;;30.70;99.90;;;;;;5099663;28;20456;-60
2022/08/10 09:30:59;;;;;;;6.13;4.30;;;30.90;99.90;;;;;;5098769;28;20467;-59
2022/08/10 09:33:42;;;;;;;4.40;4.00;;;30.40;99.90;;;;;;5099701;28;20941;-60
2022/08/10 09:36:24;;;;;;;4.03;3.63;;;30.70;99.90;;;;;;5099064;28;20494;-59
2022/08/10 09:38:58;;;;;;;5.10;4.60;;;31.30;99.90;;;;;;5099474;28;20456;-57
2022/08/10 09:41:35;;;;;;;4.33;3.93;;;30.90;99.90;;;;;;5098283;28;20736;-59
2022/08/10 09:44:13;;;;;;;5.03;4.60;;;30.00;99.90;;;;;;5098865;28;20856;-60
2022/08/10 09:46:57;;;;;;;4.00;3.70;;;30.10;99.90;;;;;;5095877;28;21044;-58
2022/08/10 09:49:38;;;;;;;4.73;4.17;;;30.20;99.90;;;;;;5088992;28;20537;-59
2022/08/10 09:52:15;;;;;;;4.20;3.90;;;30.80;99.90;;;;;;5097556;28;20473;-59
2022/08/10 09:55:00;;;;;;;5.37;4.97;;;30.70;99.90;;;;;;5087208;28;20845;-59
2022/08/10 09:57:33;;;;;;;6.33;4.40;;;31.10;99.90;;;;;;5078919;28;20471;-59
2022/08/10 10:00:11;;;;;;;5.03;4.53;;;31.20;99.90;;;;;;5080121;28;20834;-55
2022/08/10 10:02:57;;;;;;;4.93;4.07;;;31.50;99.90;;;;;;5096505;28;20472;-59
2022/08/10 10:05:48;;;;;;;3.80;3.50;;;31.70;99.90;;;;;;5099329;28;20470;-60
2022/08/10 10:08:25;;;;;;;3.87;3.57;;;32.20;99.90;;;;;;5097579;28;20543;-60
2022/08/10 10:11:07;;;;;;;4.30;4.00;;;32.50;99.90;;;;;;5098463;28;20908;-59
2022/08/10 10:13:40;;;;;;;4.23;3.70;;;32.70;99.90;;;;;;5096393;28;20966;-59
2022/08/10 10:16:29;;;;;;;7.07;4.10;;;32.70;99.90;;;;;;5097428;28;20488;-59
2022/08/10 10:19:07;;;;;;;5.00;4.60;;;32.40;99.90;;;;;;5099055;28;20464;-59
2022/08/10 10:21:43;;;;;;;5.23;4.83;;;32.20;99.90;;;;;;5099123;28;20459;-59
2022/08/10 10:24:25;;;;;;;4.57;4.07;;;31.50;99.90;;;;;;5091175;28;20468;-58
2022/08/10 10:26:57;;;;;;;5.50;4.80;;;32.20;99.90;;;;;;5094703;28;20455;-59
2022/08/10 10:29:41;;;;;;;4.93;4.53;;;32.70;99.90;;;;;;5098906;28;20554;-59
2022/08/10 10:32:18;;;;;;;5.00;4.10;;;32.80;99.90;;;;;;5096712;28;20459;-59
2022/08/10 10:34:50;;;;;;;4.40;4.00;;;33.30;99.90;;;;;;5096988;28;20465;-59
2022/08/10 10:37:21;;;;;;;5.03;4.53;;;33.10;99.90;;;;;;5097716;28;20487;-58
2022/08/10 10:39:54;;;;;;;5.40;4.87;;;32.70;99.90;;;;;;5098045;28;20481;-59
2022/08/10 10:42:32;;;;;;;5.50;4.67;;;31.90;99.90;;;;;;5098205;28;20463;-59
2022/08/10 10:45:11;;;;;;;4.63;4.07;;;32.30;99.90;;;;;;5098233;28;20467;-60
2022/08/10 10:48:01;;;;;;;4.67;4.23;;;32.60;99.90;;;;;;5097960;28;20495;-59
2022/08/10 10:50:39;;;;;;;5.97;4.20;;;33.50;99.90;;;;;;5097947;28;20809;-59
2022/08/10 10:53:17;;;;;;;4.73;4.37;;;34.20;99.90;;;;;;5097551;28;20542;-59
2022/08/10 10:55:53;;;;;;;5.10;4.27;;;34.30;99.90;;;;;;5096968;28;20895;-58
2022/08/10 10:58:27;;;;;;;5.90;4.87;;;34.40;99.90;;;;;;5097159;28;20440;-60
2022/08/10 11:01:06;;;;;;;5.47;5.07;;;34.10;99.90;;;;;;5097485;28;20430;-59
2022/08/10 11:04:01;;;;;;;4.20;3.90;;;34.70;99.90;;;;;;5098355;28;20894;-58
2022/08/10 11:06:44;;;;;;;4.90;4.50;;;33.90;99.90;;;;;;5097967;28;20483;-57
2022/08/10 11:09:26;;;;;;;4.40;4.10;;;33.90;99.90;;;;;;5096112;28;20923;-59
2022/08/10 11:11:58;;;;;;;4.33;4.00;;;32.80;99.90;;;;;;5116848;28;20458;-59
2022/08/10 11:14:33;;;;;;;4.60;4.20;;;33.20;99.90;;;;;;5118292;28;20505;-60
2022/08/10 11:17:11;;;;;;;4.00;3.70;;;33.60;99.90;;;;;;5116017;28;20486;-59
2022/08/10 11:19:46;;;;;;;4.10;3.80;;;34.10;99.90;;;;;;5097485;28;20566;-58
2022/08/10 11:22:21;;;;;;;4.27;4.03;;;33.90;99.90;;;;;;5096821;28;20735;-60
2022/08/10 11:24:57;;;;;;;5.23;4.83;;;34.40;99.90;;;;;;5096792;28;20465;-57
2022/08/10 11:27:37;;;;;;;4.23;3.93;;;33.40;99.90;;;;;;5097876;28;20454;-59
2022/08/10 11:30:08;;;;;;;4.53;4.23;;;33.00;99.90;;;;;;5097886;28;20430;-59
2022/08/10 11:32:54;;;;;;;9.00;4.17;;;32.70;99.90;;;;;;5095114;28;20934;-59
2022/08/10 11:35:30;;;;;;;4.00;3.70;;;33.10;99.90;;;;;;5095964;28;20466;-59
2022/08/10 11:38:09;;;;;;;12.33;4.53;;;33.70;99.90;;;;;;5095636;28;21017;-59
2022/08/10 11:40:46;;;;;;;5.37;4.13;;;34.00;99.90;;;;;;5092034;28;20563;-59
2022/08/10 11:43:22;;;;;;;6.47;4.30;;;33.40;99.90;;;;;;5096141;28;20451;-56
2022/08/10 11:45:54;;;;;;;4.93;4.63;;;33.40;99.90;;;;;;5095673;28;20857;-59
2022/08/10 11:48:33;;;;;;;5.20;3.83;;;33.70;99.90;;;;;;5095255;28;20451;-58
2022/08/10 11:51:04;;;;;;;4.63;4.23;;;34.40;99.90;;;;;;5093829;28;20478;-59
2022/08/10 11:53:46;;;;;;;3.53;3.33;;;34.90;99.90;;;;;;5096317;28;20463;-59
2022/08/10 11:56:24;;;;;;;5.80;5.30;;;35.00;99.90;;;;;;5095236;28;20455;-60
2022/08/10 12:01:42;;;;;;;4.00;3.70;;;35.20;99.90;;;;;;5096312;28;20439;-60
2022/08/10 12:04:11;;;;;;;4.30;4.00;;;35.60;99.90;;;;;;5097085;28;20487;-58
2022/08/10 12:06:39;;;;;;;4.70;4.30;;;35.10;99.90;;;;;;5097377;28;20453;-57
2022/08/10 12:09:07;;;;;;;4.40;4.00;;;33.60;99.90;;;;;;5097311;28;20744;-53
2022/08/10 12:11:41;;;;;;;4.33;4.03;;;33.50;99.90;;;;;;5096776;28;20460;-59
2022/08/10 12:14:15;;;;;;;4.70;4.30;;;33.50;99.90;;;;;;5094335;28;20484;-58
2022/08/10 12:16:47;;;;;;;5.50;3.93;;;33.10;99.90;;;;;;5078360;28;20492;-59
2022/08/10 12:19:32;;;;;;;4.40;4.10;;;34.00;99.90;;;;;;5076347;28;20829;-58
2022/08/10 12:22:05;;;;;;;4.60;4.20;;;34.30;99.90;;;;;;5080081;28;20460;-59
2022/08/10 12:24:41;;;;;;;6.10;4.27;;;34.50;99.90;;;;;;5079897;28;20447;-59
2022/08/10 12:27:14;;;;;;;4.30;4.00;;;34.90;99.90;;;;;;5076908;28;20471;-59
2022/08/10 12:29:48;;;;;;;4.00;3.70;;;35.10;99.90;;;;;;5087016;28;20477;-60
2022/08/10 12:32:24;;;;;;;4.70;4.30;;;35.50;99.90;;;;;;5075262;28;20550;-60
2022/08/10 12:35:00;;;;;;;4.53;4.13;;;35.20;99.90;;;;;;5075827;28;20474;-57
2022/08/10 12:37:38;;;;;;;4.60;4.30;;;34.40;99.90;;;;;;5076310;28;20488;-60
2022/08/10 12:40:18;;;;;;;4.87;4.40;;;34.70;99.90;;;;;;5075880;28;20519;-58
2022/08/10 12:42:59;;;;;;;4.43;4.10;;;35.10;99.90;;;;;;5075512;28;20435;-59
2022/08/10 12:45:42;;;;;;;4.13;3.93;;;34.70;99.90;;;;;;5076343;28;21107;-59
2022/08/10 12:48:18;;;;;;;4.73;4.30;;;35.40;99.90;;;;;;5089786;28;20450;-59
2022/08/10 12:50:55;;;;;;;4.30;3.93;;;35.10;99.90;;;;;;5119194;28;20480;-60
2022/08/10 12:53:36;;;;;;;4.67;4.27;;;35.30;99.90;;;;;;5120478;28;20638;-59
2022/08/10 12:56:07;;;;;;;7.17;4.30;;;34.60;99.90;;;;;;5120177;28;20462;-57
2022/08/10 12:58:37;;;;;;;5.53;4.40;;;33.90;99.90;;;;;;5120336;28;20497;-60
2022/08/10 13:01:11;;;;;;;6.10;4.60;;;33.60;99.90;;;;;;5119710;28;20447;-60
2022/08/10 13:03:39;;;;;;;4.00;3.70;;;34.30;99.90;;;;;;5120199;28;20465;-60
2022/08/10 13:06:14;;;;;;;4.40;4.10;;;35.10;99.90;;;;;;5120269;28;20528;-60
2022/08/10 13:11:29;;;;;;;4.23;3.77;;;35.00;99.90;;;;;;5110603;28;20447;-57
2022/08/10 13:14:05;;;;;;;3.87;3.47;;;35.10;99.90;;;;;;5098148;28;20487;-58
2022/08/10 13:16:36;;;;;;;4.50;3.80;;;35.60;99.90;;;;;;5099122;28;20535;-57
2022/08/10 13:19:05;;;;;;;4.40;4.10;;;34.30;99.90;;;;;;5099512;28;20508;-59
2022/08/10 13:21:36;;;;;;;4.33;3.83;;;33.80;99.90;;;;;;5099933;28;20460;-55
2022/08/10 13:24:10;;;;;;;4.70;4.20;;;34.20;99.90;;;;;;5099427;28;20460;-54
2022/08/10 13:26:48;;;;;;;4.57;4.17;;;34.50;99.90;;;;;;5098994;28;20455;-60
2022/08/10 13:29:18;;;;;;;4.17;3.90;;;34.80;99.90;;;;;;5100282;28;20455;-59
2022/08/10 13:31:51;;;;;;;3.83;3.53;;;34.70;99.90;;;;;;5098025;28;20462;-58